Flight Track Log - Related Links

Times and Time Zones

All times are in EDT time to prevent confusion due to time zone crossing. See the UAL4476 flight status page for this flight to view local times or setup timezone preferences in your user account.


Time Position Orientation Groundspeed Altitude Reporting Facility
EDT Latitude Longitude Course Direction KTS MPH feet Rate Location/Type
Tue 08:53:21 AM 41.3939 -81.8814 287° West 169 194 1,700  Level Cleveland Center
Tue 08:53:57 AM 41.4019 -81.9175 287° West 182 209 3,000 2,165 Climbing Cleveland Center
Tue 08:54:58 AM 41.4492 -81.9711 320° Northwest 239 275 5,200 2,048 Climbing Cleveland Center
Tue 08:56:03 AM 41.5183 -81.9392 19° North 243 280 7,300 2,064 Climbing Cleveland Center
Tue 08:57:03 AM 41.5714 -81.8489 52° Northeast 269 310 9,500 1,950 Climbing Cleveland Center
Tue 08:58:03 AM 41.6225 -81.7636 51° Northeast 309 356 11,200 1,500 Climbing Cleveland Center
Tue 08:59:03 AM 41.6425 -81.6361 78° East 323 372 12,500 1,200 Climbing Cleveland Center
Tue 09:00:03 AM 41.6708 -81.5006 74° East 359 413 13,600 1,250 Climbing Cleveland Center
Tue 09:01:03 AM 41.7133 -81.3675 67° East 377 434 15,000 1,250 Climbing Cleveland Center
Tue 09:02:03 AM 41.7269 -81.2092 83° East 383 441 16,100 1,050 Climbing Cleveland Center
Tue 09:03:03 AM 41.7089 -81.0617 99° East 388 447 17,100 1,000 Climbing Cleveland Center
Tue 09:04:03 AM 41.6906 -80.9083 99° East 405 466 18,100 1,150 Climbing Cleveland Center
Tue 09:05:03 AM 41.6742 -80.7556 98° East 412 474 19,400 1,300 Climbing Cleveland Center
Tue 09:06:03 AM 41.6556 -80.5969 99° East 417 480 20,700 1,300 Climbing Cleveland Center
Tue 09:07:03 AM 41.6389 -80.4414 98° East 425 489 22,000 1,200 Climbing Cleveland Center
Tue 09:08:03 AM 41.6239 -80.2803 97° East 430 495 23,100 1,050 Climbing Cleveland Center
Tue 09:09:03 AM 41.6108 -80.1167 96° East 430 495 24,100 1,200 Climbing Cleveland Center
Tue 09:10:03 AM 41.5997 -79.9556 95° East 435 501 25,500 1,500 Climbing Cleveland Center
Tue 09:11:03 AM 41.5944 -79.7947 92° East 435 501 27,100 1,350 Climbing Cleveland Center
Tue 09:12:03 AM 41.5975 -79.6364 88° East 430 495 28,200 1,000 Climbing Cleveland Center
Tue 09:13:03 AM 41.6025 -79.4753 88° East 430 495 29,100 950 Climbing Cleveland Center
Tue 09:14:03 AM 41.6047 -79.3114 89° East 430 495 30,100 950 Climbing Cleveland Center
Tue 09:15:03 AM 41.6133 -79.1444 86° East 435 501 31,000 450 Climbing Cleveland Center
Tue 09:16:03 AM 41.6614 -79.0072 65° Northeast 440 506 31,000  Level Cleveland Center
Tue 09:17:03 AM 41.7319 -78.8358 61° Northeast 452 520 31,000  Level Cleveland Center
Tue 09:18:03 AM 41.7983 -78.6753 61° Northeast 468 539 31,000  Level Cleveland Center
Tue 09:19:03 AM 41.8619 -78.5089 63° Northeast 481 554 31,000  Level Cleveland Center
Tue 09:20:03 AM 41.9278 -78.3475 61° Northeast 481 554 31,000  Level Cleveland Center
Tue 09:21:03 AM 41.9794 -78.2172 62° Northeast 481 554 31,000  Level Cleveland Center
Tue 09:22:03 AM 42.0506 -78.0383 62° Northeast 486 559 31,000  Level Cleveland Center
Tue 09:23:03 AM 42.1156 -77.8708 62° Northeast 486 559 31,000  Level Cleveland Center
Tue 09:24:03 AM 42.1806 -77.7083 62° Northeast 486 559 31,000  Level Cleveland Center
Tue 09:25:03 AM 42.2450 -77.5425 62° Northeast 486 559 31,000  Level Cleveland Center
Tue 09:27:15 AM 42.3825 -77.1828 63° Northeast 510 587 31,000  Level Boston Center
Tue 09:28:16 AM 42.4372 -77.0208 65° Northeast 494 568 31,000  Level Boston Center
Tue 09:29:14 AM 42.4614 -76.8283 80° East 470 541 31,000  Level Boston Center
Tue 09:30:14 AM 42.4808 -76.6467 82° East 470 541 31,000  Level Boston Center
Tue 09:31:15 AM 42.5000 -76.4647 82° East 475 547 31,000  Level Boston Center
Tue 09:32:15 AM 42.5208 -76.2800 81° East 482 555 31,000  Level Boston Center
Tue 09:33:13 AM 42.5336 -76.1514 82° East 487 560 31,000  Level Boston Center
Tue 09:34:13 AM 42.5550 -75.9325 82° East 492 566 31,000  Level Boston Center
Tue 09:35:14 AM 42.5731 -75.7475 82° East 492 566 31,000 -49 Level Boston Center
Tue 09:36:15 AM 42.5908 -75.5650 82° East 492 566 30,900  Descending Boston Center
Tue 09:37:15 AM 42.5603 -75.3803 103° East 492 566 31,000 51 Climbing Boston Center
Tue 09:38:13 AM 42.4744 -75.2383 129° Southeast 468 539 31,000  Level Boston Center
Tue 09:39:13 AM 42.3967 -75.0856 125° Southeast 475 547 31,000  Level Boston Center
Tue 09:40:14 AM 42.3903 -74.9028 93° East 470 541 31,000  Level Boston Center
Tue 09:41:14 AM 42.4025 -74.7175 85° East 475 547 31,000  Level Boston Center
Tue 09:42:15 AM 42.4125 -74.5322 86° East 480 552 31,000  Level Boston Center
Tue 09:43:15 AM 42.4281 -74.3500 83° East 485 558 31,000 -700 Level Boston Center
Tue 09:44:15 AM 42.4394 -74.1675 85° East 485 558 29,600 -1,017 Descending Boston Center
Tue 09:45:13 AM 42.4503 -73.9850 85° East 485 558 29,000 -303 Descending Boston Center
Tue 09:46:14 AM 42.4608 -73.8050 85° East 480 552 29,000  Level Boston Center
Tue 09:47:15 AM 42.4714 -73.6194 86° East 480 552 29,000  Level Boston Center
Tue 09:48:13 AM 42.4814 -73.4339 86° East 480 552 29,000 -254 Level Boston Center
Tue 09:49:13 AM 42.4933 -73.2397 85° East 497 572 28,500 -694 Descending Boston Center
Tue 09:50:14 AM 42.5008 -73.0511 87° East 497 572 27,600 -942 Descending Boston Center
Tue 09:51:14 AM 42.5100 -72.8794 86° East 480 552 26,600 -958 Descending Boston Center
Tue 09:52:13 AM 42.5189 -72.7019 86° East 475 547 25,700 -1,311 Descending Boston Center
Tue 09:53:13 AM 42.5253 -72.5611 86° East 470 541 24,000 -2,400 Descending Boston Center
Tue 09:54:13 AM 42.5339 -72.3528 87° East 470 541 20,900 -2,777 Descending Boston Center
Tue 09:55:14 AM 42.5397 -72.1808 87° East 433 498 18,400 -2,033 Descending Boston Center
Tue 09:56:14 AM 42.5436 -72.0428 88° East 406 467 16,800 -1,983 Descending Boston Center
Tue 09:57:15 AM 42.5303 -71.8794 96° East 394 453 14,400 -2,213 Descending Boston Center
Tue 09:58:16 AM 42.5317 -71.7525 89° East 381 438 12,300 -1,780 Descending Boston Center
Tue 09:59:13 AM 42.5453 -71.6144 82° East 348 400 10,900 -839 Descending Boston Center
Tue 09:59:49 AM 42.5500 -71.5333 85° East 310 357 11,000 -813 Climbing KA90
Tue 10:00:49 AM 42.5667 -71.4167 79° East 312 359 9,600 -1,450 Descending KA90
Tue 10:01:49 AM 42.5667 -71.3167 90° East 295 339 8,100 -1,617 Descending KA90
Tue 10:02:44 AM 42.5667 -71.2167 90° East 284 327 6,500 -1,826 Descending KA90
Tue 10:03:44 AM 42.5500 -71.1000 101° East 277 319 4,600 -1,667 Descending KA90
Tue 10:04:50 AM 42.5333 -71.0167 105° East 254 292 3,000 -857 Descending KA90
Tue 10:05:50 AM 42.5000 -70.9500 124° Southeast 175 201 2,800 -600 Descending KA90
Tue 10:06:50 AM 42.4500 -70.9500 180° South 155 178 1,800 -850 Descending KA90
Tue 10:07:50 AM 42.4167 -70.9833 216° Southwest 122 140 1,100 -650 Descending KA90
Tue 10:08:50 AM 42.4000 -70.9833 180° South 128 147 500 2,912 Descending KA90
Tue 10:11:14 AM 42.3208 -71.0278 203° Southwest 125 144 11,000 4,375 Climbing Boston Center

Login

Don't have an account? Register now (free) for customized features, flight alerts, and more!